createdAt,value
2018-12-24T00:00:34.060Z,5.10
2018-12-24T00:03:03.994Z,1.80
2018-12-24T00:05:33.950Z,1.60
2018-12-24T00:08:03.917Z,2.47
2018-12-24T00:10:33.885Z,2.13
2018-12-24T00:13:03.852Z,5.13
2018-12-24T00:15:33.904Z,2.23
2018-12-24T00:18:03.862Z,2.27
2018-12-24T00:20:33.795Z,4.87
2018-12-24T00:23:03.781Z,3.73
2018-12-24T00:25:33.684Z,2.43
2018-12-24T00:28:03.606Z,2.20
2018-12-24T00:30:33.647Z,2.07
2018-12-24T00:33:03.587Z,4.47
2018-12-24T00:35:33.518Z,3.43
2018-12-24T00:38:03.463Z,2.23
2018-12-24T00:40:33.375Z,2.10
2018-12-24T00:43:03.523Z,1.70
2018-12-24T00:45:33.464Z,6.23
2018-12-24T00:48:03.522Z,7.63
2018-12-24T00:50:33.455Z,1.23
2018-12-24T00:53:03.569Z,1.43
2018-12-24T00:55:33.526Z,1.23
2018-12-24T00:58:03.448Z,2.10
2018-12-24T01:00:33.412Z,2.20
2018-12-24T01:03:03.440Z,1.10
2018-12-24T01:05:33.391Z,3.13
2018-12-24T01:08:03.339Z,1.87
2018-12-24T01:10:33.267Z,1.20
2018-12-24T01:13:03.211Z,1.50
2018-12-24T01:15:33.210Z,2.60
2018-12-24T01:18:03.165Z,1.13
2018-12-24T01:20:33.939Z,2.10
2018-12-24T01:23:04.063Z,1.63
2018-12-24T01:25:33.998Z,8.03
2018-12-24T01:28:03.966Z,19.13
2018-12-24T01:30:33.933Z,5.33
2018-12-24T01:33:03.859Z,2.83
2018-12-24T01:35:33.794Z,2.77
2018-12-24T01:38:03.748Z,1.10
2018-12-24T01:40:33.696Z,1.43
2018-12-24T01:43:03.631Z,2.17
2018-12-24T01:45:33.630Z,1.80
2018-12-24T01:48:03.567Z,3.00
2018-12-24T01:50:33.634Z,1.40
2018-12-24T01:53:03.634Z,1.50
2018-12-24T01:55:33.605Z,1.20
2018-12-24T01:58:03.531Z,1.20
2018-12-24T02:00:33.530Z,1.30
2018-12-24T02:03:03.475Z,3.20
2018-12-24T02:05:33.411Z,2.20
2018-12-24T02:08:03.406Z,2.63
2018-12-24T02:10:33.462Z,2.23
2018-12-24T02:13:03.416Z,1.40
2018-12-24T02:15:33.404Z,1.50
2018-12-24T02:18:03.336Z,1.20
2018-12-24T02:20:33.268Z,1.17
2018-12-24T02:23:03.231Z,2.63
2018-12-24T02:25:33.179Z,2.90
2018-12-24T02:28:03.304Z,1.50
2018-12-24T02:30:33.286Z,1.53
2018-12-24T02:33:03.284Z,1.80
2018-12-24T02:35:33.262Z,2.10
2018-12-24T02:38:03.220Z,5.00
2018-12-24T02:40:33.176Z,1.53
2018-12-24T02:43:03.167Z,3.73
2018-12-24T02:45:33.164Z,2.60
2018-12-24T02:48:03.132Z,1.40
2018-12-24T02:50:33.072Z,1.63
2018-12-24T02:53:03.107Z,2.80
2018-12-24T02:55:33.059Z,1.73
2018-12-24T02:58:03.007Z,1.40
2018-12-24T03:00:33.053Z,1.43
2018-12-24T03:03:03.023Z,2.50
2018-12-24T03:05:32.963Z,1.40
2018-12-24T03:08:02.967Z,2.13
2018-12-24T03:10:32.937Z,1.40
2018-12-24T03:13:03.349Z,2.10
2018-12-24T03:15:33.412Z,1.17
2018-12-24T03:18:03.379Z,2.03
2018-12-24T03:20:33.348Z,1.27
2018-12-24T03:23:03.292Z,1.10
2018-12-24T03:25:33.268Z,0.80
2018-12-24T03:28:03.203Z,1.30
2018-12-24T03:30:33.175Z,3.17
2018-12-24T03:33:03.131Z,1.20
2018-12-24T03:35:33.060Z,2.50
2018-12-24T03:38:03.048Z,2.83
2018-12-24T03:40:33.001Z,5.83
2018-12-24T03:43:12.117Z,1.63
2018-12-24T03:45:34.563Z,1.20
2018-12-24T03:48:04.516Z,1.30
2018-12-24T03:50:34.511Z,1.10
2018-12-24T03:53:04.465Z,2.57
2018-12-24T03:55:34.475Z,1.55
2018-12-24T03:58:04.495Z,4.43
2018-12-24T04:00:34.496Z,1.17
2018-12-24T04:03:04.419Z,1.27
2018-12-24T04:05:34.371Z,0.97
2018-12-24T04:08:04.345Z,6.70
2018-12-24T04:10:34.263Z,12.03
2018-12-24T04:13:04.220Z,6.70
2018-12-24T04:15:34.169Z,2.33
2018-12-24T04:18:04.130Z,1.50
2018-12-24T04:20:34.183Z,2.33
2018-12-24T04:23:04.170Z,3.27
2018-12-24T04:25:34.095Z,2.50
2018-12-24T04:28:04.048Z,1.10
2018-12-24T04:30:34.023Z,1.07
2018-12-24T04:33:03.964Z,1.20
2018-12-24T04:35:33.885Z,1.37
2018-12-24T04:38:05.103Z,1.17
2018-12-24T04:40:35.031Z,5.27
2018-12-24T04:43:04.967Z,3.43
2018-12-24T04:45:34.927Z,2.10
2018-12-24T04:48:04.925Z,2.60
2018-12-24T04:50:34.875Z,1.10
2018-12-24T04:53:04.851Z,1.10
2018-12-24T04:55:34.860Z,2.53
2018-12-24T04:58:05.028Z,2.50
2018-12-24T05:00:35.012Z,2.13
2018-12-24T05:03:07.922Z,1.07
2018-12-24T05:05:37.918Z,3.30
2018-12-24T05:08:07.967Z,2.60
2018-12-24T05:10:37.902Z,4.50
2018-12-24T05:13:07.894Z,1.20
2018-12-24T05:15:37.944Z,2.53
2018-12-24T05:18:07.866Z,0.87
2018-12-24T05:20:37.800Z,4.90
2018-12-24T05:23:07.811Z,0.90
2018-12-24T05:25:37.712Z,2.93
2018-12-24T05:28:07.628Z,1.57
2018-12-24T05:30:37.620Z,1.00
2018-12-24T05:33:07.566Z,4.93
2018-12-24T05:35:37.496Z,2.30
2018-12-24T05:38:07.491Z,1.93
2018-12-24T05:40:37.441Z,1.50
2018-12-24T05:43:07.410Z,4.07
2018-12-24T05:45:38.584Z,3.57
2018-12-24T05:48:08.563Z,1.00
2018-12-24T05:50:38.491Z,1.30
2018-12-24T05:53:08.490Z,1.43
2018-12-24T05:55:38.428Z,1.20
2018-12-24T05:58:08.394Z,8.80
2018-12-24T06:00:38.504Z,3.83
2018-12-24T06:03:08.424Z,4.40
2018-12-24T06:05:38.507Z,5.90
2018-12-24T06:08:08.614Z,2.27
2018-12-24T06:10:38.656Z,1.20
2018-12-24T06:13:08.747Z,1.90
2018-12-24T06:15:38.768Z,3.07
2018-12-24T06:18:08.937Z,2.10
2018-12-24T06:20:39.051Z,3.17
2018-12-24T06:23:11.246Z,2.10
2018-12-24T06:25:41.183Z,7.53
2018-12-24T06:28:11.159Z,2.10
2018-12-24T06:30:41.143Z,5.33
2018-12-24T06:33:11.076Z,3.00
2018-12-24T06:35:41.017Z,2.20
2018-12-24T06:38:10.977Z,5.43
2018-12-24T06:40:40.933Z,3.93
2018-12-24T06:43:10.878Z,4.23
2018-12-24T06:45:40.916Z,5.07
2018-12-24T06:48:10.880Z,1.73
2018-12-24T06:50:40.959Z,2.57
2018-12-24T06:53:10.996Z,4.33
2018-12-24T06:55:43.749Z,3.40
2018-12-24T06:58:13.707Z,1.97
2018-12-24T07:00:43.680Z,1.93
2018-12-24T07:03:13.687Z,6.30
2018-12-24T07:05:43.648Z,2.90
2018-12-24T07:08:13.676Z,5.10
2018-12-24T07:10:43.632Z,4.13
2018-12-24T07:13:13.596Z,6.50
2018-12-24T07:15:43.547Z,4.65
2018-12-24T07:18:13.530Z,4.23
2018-12-24T07:20:43.491Z,5.00
2018-12-24T07:23:13.476Z,2.70
2018-12-24T07:25:43.406Z,3.80
2018-12-24T07:28:13.362Z,2.30
2018-12-24T07:30:43.372Z,3.87
2018-12-24T07:33:13.344Z,2.27
2018-12-24T07:35:43.305Z,2.00
2018-12-24T07:38:13.267Z,2.07
2018-12-24T07:40:43.208Z,2.80
2018-12-24T07:43:13.223Z,5.37
2018-12-24T07:45:43.269Z,7.23
2018-12-24T07:48:13.352Z,11.30
2018-12-24T07:50:43.345Z,5.73
2018-12-24T07:53:13.331Z,7.00
2018-12-24T07:55:55.054Z,1.97
2018-12-24T07:58:25.104Z,2.57
2018-12-24T08:00:55.039Z,5.60
2018-12-24T08:03:24.998Z,8.03
2018-12-24T08:05:55.056Z,12.67
2018-12-24T08:08:25.031Z,3.40
2018-12-24T08:10:54.962Z,21.80
2018-12-24T08:13:24.913Z,14.90
2018-12-24T08:15:54.878Z,4.90
2018-12-24T08:18:24.911Z,14.87
2018-12-24T08:20:54.916Z,7.10
2018-12-24T08:23:24.866Z,7.43
2018-12-24T08:25:54.796Z,12.30
2018-12-24T08:28:24.823Z,12.43
2018-12-24T08:30:54.778Z,5.33
2018-12-24T08:33:24.735Z,16.23
2018-12-24T08:35:54.732Z,4.40
2018-12-24T08:38:24.799Z,11.53
2018-12-24T08:40:54.803Z,12.60
2018-12-24T08:43:24.774Z,4.20
2018-12-24T08:45:54.733Z,14.10
2018-12-24T08:48:24.682Z,6.33
2018-12-24T08:50:54.682Z,6.60
2018-12-24T08:53:24.626Z,15.63
2018-12-24T08:55:54.560Z,13.17
2018-12-24T08:58:24.587Z,24.27
2018-12-24T09:00:54.561Z,47.57
2018-12-24T09:03:24.492Z,18.53
2018-12-24T09:05:54.493Z,18.13
2018-12-24T09:08:24.523Z,20.80
2018-12-24T09:10:54.479Z,8.00
2018-12-24T09:13:24.484Z,7.27
2018-12-24T09:15:54.416Z,7.90
2018-12-24T09:18:24.339Z,8.90
2018-12-24T09:20:54.301Z,9.90
2018-12-24T09:23:24.255Z,7.70
2018-12-24T09:25:54.288Z,6.50
2018-12-24T09:28:24.364Z,6.50
2018-12-24T09:30:54.418Z,5.27
2018-12-24T09:33:24.387Z,3.93
2018-12-24T09:35:54.400Z,5.63
2018-12-24T09:38:24.339Z,21.33
2018-12-24T09:40:54.342Z,29.27
2018-12-24T09:43:24.315Z,17.80
2018-12-24T09:45:54.272Z,17.80
2018-12-24T09:48:24.326Z,12.60
2018-12-24T09:50:54.292Z,16.37
2018-12-24T09:53:24.257Z,16.23
2018-12-24T09:55:54.204Z,11.70
2018-12-24T09:58:24.195Z,13.53
2018-12-24T10:00:54.156Z,10.87
2018-12-24T10:03:28.485Z,17.70
2018-12-24T10:06:08.488Z,20.53
2018-12-24T10:08:38.458Z,13.73
2018-12-24T10:11:08.461Z,13.73
2018-12-24T10:13:38.398Z,12.20
2018-12-24T10:16:08.406Z,21.00
2018-12-24T10:18:38.376Z,17.83
2018-12-24T10:21:08.326Z,12.60
2018-12-24T10:23:38.341Z,11.30
2018-12-24T10:26:08.267Z,15.73
2018-12-24T10:28:38.215Z,16.53
2018-12-24T10:31:08.201Z,5.70
2018-12-24T10:33:38.175Z,9.87
2018-12-24T10:36:08.147Z,12.30
2018-12-24T10:38:38.231Z,10.33
2018-12-24T10:41:18.573Z,17.00
2018-12-24T10:43:48.512Z,11.80
2018-12-24T10:46:18.644Z,13.50
2018-12-24T10:48:48.641Z,14.07
2018-12-24T10:51:18.703Z,7.73
2018-12-24T10:53:48.694Z,9.00
2018-12-24T10:56:18.805Z,15.50
2018-12-24T10:58:48.786Z,22.03
2018-12-24T11:01:18.801Z,9.37
2018-12-24T11:03:48.887Z,8.63
2018-12-24T11:06:18.847Z,7.30
2018-12-24T11:08:48.932Z,12.30
2018-12-24T11:11:18.960Z,13.13
2018-12-24T11:13:49.041Z,25.60
2018-12-24T11:16:19.027Z,10.10
2018-12-24T11:18:48.971Z,10.00
2018-12-24T11:21:18.978Z,4.80
2018-12-24T11:23:49.176Z,5.70
2018-12-24T11:26:19.128Z,6.93
2018-12-24T11:28:49.205Z,9.73
2018-12-24T11:31:19.140Z,9.70
2018-12-24T11:33:49.208Z,11.50
2018-12-24T11:36:19.167Z,8.07
2018-12-24T11:38:49.122Z,4.00
2018-12-24T11:41:19.108Z,3.43
2018-12-24T11:43:49.064Z,3.92
2018-12-24T11:46:19.064Z,2.50
2018-12-24T11:48:49.144Z,4.20
2018-12-24T11:51:19.198Z,2.73
2018-12-24T11:53:49.237Z,7.63
2018-12-24T11:56:19.235Z,4.70
2018-12-24T11:58:49.176Z,3.43
2018-12-24T12:01:19.143Z,4.40
2018-12-24T12:03:49.116Z,4.90
2018-12-24T12:06:19.888Z,12.00
2018-12-24T12:08:50.123Z,3.97
2018-12-24T12:11:20.056Z,3.43
2018-12-24T12:13:50.117Z,3.07
2018-12-24T12:16:20.172Z,7.07
2018-12-24T12:18:50.104Z,17.43
2018-12-24T12:21:20.161Z,7.20
2018-12-24T12:23:50.105Z,2.60
2018-12-24T12:26:20.032Z,2.93
2018-12-24T12:28:50.015Z,6.57
2018-12-24T12:31:20.083Z,2.47
2018-12-24T12:33:50.022Z,5.43
2018-12-24T12:36:20.031Z,3.13
2018-12-24T12:38:49.978Z,5.27
2018-12-24T12:41:19.931Z,3.63
2018-12-24T12:43:49.881Z,5.63
2018-12-24T12:46:19.827Z,5.80
2018-12-24T12:48:49.755Z,3.97
2018-12-24T12:51:19.711Z,13.17
2018-12-24T12:53:49.663Z,3.37
2018-12-24T12:56:19.625Z,4.70
2018-12-24T12:58:49.585Z,3.17
2018-12-24T13:01:19.556Z,4.27
2018-12-24T13:03:49.489Z,8.27
2018-12-24T13:06:19.468Z,3.50
2018-12-24T13:08:49.415Z,4.90
2018-12-24T13:11:19.412Z,4.30
2018-12-24T13:13:49.375Z,4.87
2018-12-24T13:16:19.314Z,5.53
2018-12-24T13:18:49.331Z,6.90
2018-12-24T13:21:19.292Z,5.07
2018-12-24T13:23:49.288Z,4.57
2018-12-24T13:26:19.240Z,3.70
2018-12-24T13:28:49.224Z,3.47
2018-12-24T13:31:19.159Z,4.53
2018-12-24T13:33:49.129Z,11.10
2018-12-24T13:36:19.144Z,4.80
2018-12-24T13:38:49.083Z,4.30
2018-12-24T13:41:19.067Z,4.80
2018-12-24T13:43:49.087Z,5.67
2018-12-24T13:46:19.167Z,5.60
2018-12-24T13:48:49.152Z,5.10
2018-12-24T13:51:19.151Z,5.07
2018-12-24T13:53:49.100Z,4.27
2018-12-24T13:56:19.134Z,5.03
2018-12-24T13:58:49.098Z,8.10
2018-12-24T14:01:21.681Z,5.67
2018-12-24T14:03:51.664Z,5.50
2018-12-24T14:06:21.761Z,9.70
2018-12-24T14:08:51.724Z,7.87
2018-12-24T14:11:21.687Z,5.87
2018-12-24T14:13:51.684Z,5.63
2018-12-24T14:16:21.688Z,6.20
2018-12-24T14:18:51.620Z,6.60
2018-12-24T14:21:21.704Z,5.90
2018-12-24T14:23:51.651Z,6.77
2018-12-24T14:26:21.927Z,5.13
2018-12-24T14:28:51.926Z,6.25
2018-12-24T14:31:21.875Z,5.87
2018-12-24T14:33:54.591Z,4.70
2018-12-24T14:36:26.754Z,8.10
2018-12-24T14:38:56.700Z,8.53
2018-12-24T14:41:26.668Z,9.43
2018-12-24T14:43:56.642Z,5.60
2018-12-24T14:46:26.623Z,17.77
2018-12-24T14:48:56.599Z,7.60
2018-12-24T14:51:26.547Z,8.17
2018-12-24T14:53:56.938Z,11.40
2018-12-24T14:56:27.048Z,9.17
2018-12-24T14:58:56.986Z,9.20
2018-12-24T15:01:26.912Z,12.40
2018-12-24T15:03:56.904Z,10.03
2018-12-24T15:06:26.928Z,10.80
2018-12-24T15:08:57.019Z,20.20
2018-12-24T15:11:27.086Z,13.33
2018-12-24T15:13:57.155Z,10.60
2018-12-24T15:16:33.854Z,12.73
2018-12-24T15:18:59.079Z,10.90
2018-12-24T15:21:29.020Z,9.70
2018-12-24T15:23:58.995Z,11.17
2018-12-24T15:26:29.086Z,12.80
2018-12-24T15:28:59.098Z,11.90
2018-12-24T15:31:29.047Z,10.03
2018-12-24T15:33:59.043Z,10.90
2018-12-24T15:36:29.043Z,17.10
2018-12-24T15:38:58.998Z,13.67
2018-12-24T15:41:29.088Z,11.23
2018-12-24T15:43:59.097Z,14.30
2018-12-24T15:46:29.049Z,12.73
2018-12-24T15:48:58.991Z,11.60
2018-12-24T15:51:29.085Z,12.43
2018-12-24T15:53:59.111Z,12.00
2018-12-24T15:56:29.096Z,14.73
2018-12-24T15:58:59.135Z,12.93
2018-12-24T16:01:29.236Z,14.10
2018-12-24T16:03:59.229Z,13.80
2018-12-24T16:06:29.364Z,14.60
2018-12-24T16:08:59.358Z,13.53
2018-12-24T16:11:29.480Z,15.90
2018-12-24T16:13:59.431Z,15.67
2018-12-24T16:16:29.456Z,14.30
2018-12-24T16:18:59.587Z,15.00
2018-12-24T16:21:29.563Z,14.30
2018-12-24T16:23:59.531Z,17.33
2018-12-24T16:26:29.600Z,16.20
2018-12-24T16:28:59.620Z,14.87
2018-12-24T16:31:29.559Z,15.23
2018-12-24T16:33:59.535Z,13.83
2018-12-24T16:36:29.498Z,14.97
2018-12-24T16:38:59.532Z,21.93
2018-12-24T16:41:29.521Z,14.77
2018-12-24T16:43:59.492Z,15.57
2018-12-24T16:46:29.416Z,15.37
2018-12-24T16:48:59.387Z,16.83
2018-12-24T16:52:02.526Z,19.07
2018-12-24T16:54:32.550Z,20.63
2018-12-24T16:57:02.599Z,16.43
2018-12-24T16:59:32.533Z,18.07
2018-12-24T17:02:02.471Z,16.90
2018-12-24T17:04:32.405Z,21.50
2018-12-24T17:07:02.348Z,21.47
2018-12-24T17:09:32.372Z,20.40
2018-12-24T17:12:02.312Z,18.23
2018-12-24T17:14:32.256Z,23.43
2018-12-24T17:17:07.705Z,19.23
2018-12-24T17:19:33.841Z,17.20
2018-12-24T17:22:03.819Z,18.53
2018-12-24T17:24:33.923Z,17.07
2018-12-24T17:27:06.151Z,18.60
2018-12-24T17:29:36.209Z,19.13
2018-12-24T17:32:06.286Z,19.83
2018-12-24T17:34:36.248Z,19.87
2018-12-24T17:37:06.301Z,18.17
2018-12-24T17:39:36.251Z,26.97
2018-12-24T17:42:06.170Z,20.53
2018-12-24T17:44:36.139Z,22.43
2018-12-24T17:47:06.236Z,36.90
2018-12-24T17:49:36.163Z,26.53
2018-12-24T17:52:06.198Z,32.70
2018-12-24T17:54:36.142Z,36.47
2018-12-24T17:57:06.061Z,31.90
2018-12-24T17:59:36.033Z,35.90
2018-12-24T18:02:06.085Z,36.57
2018-12-24T18:04:36.010Z,58.13
2018-12-24T18:07:05.981Z,64.90
2018-12-24T18:09:35.950Z,38.57
2018-12-24T18:12:05.943Z,40.17
2018-12-24T18:14:35.960Z,43.40
2018-12-24T18:17:05.900Z,37.73
2018-12-24T18:19:35.831Z,28.73
2018-12-24T18:22:05.968Z,27.40
2018-12-24T18:24:35.995Z,30.63
2018-12-24T18:27:05.960Z,28.37
2018-12-24T18:29:35.976Z,28.80
2018-12-24T18:32:06.140Z,24.20
2018-12-24T18:34:36.307Z,26.50
2018-12-24T18:37:06.287Z,36.43
2018-12-24T18:39:36.210Z,35.60
2018-12-24T18:42:07.211Z,35.90
2018-12-24T18:44:37.184Z,38.30
2018-12-24T18:47:07.247Z,35.60
2018-12-24T18:49:37.301Z,26.97
2018-12-24T18:52:07.264Z,35.70
2018-12-24T18:54:37.407Z,38.03
2018-12-24T18:57:07.338Z,32.70
2018-12-24T18:59:37.345Z,216.33
2018-12-24T19:02:07.270Z,209.50
2018-12-24T19:04:39.326Z,521.07
2018-12-24T19:07:09.451Z,445.17
2018-12-24T19:09:39.675Z,210.13
2018-12-24T19:12:09.609Z,167.23
2018-12-24T19:14:39.595Z,137.93
2018-12-24T19:17:09.563Z,112.00
2018-12-24T19:19:39.601Z,341.13
2018-12-24T19:22:09.631Z,777.80
2018-12-24T19:24:39.599Z,1101.77
2018-12-24T19:27:09.560Z,561.50
2018-12-24T19:29:39.581Z,244.00
2018-12-24T19:32:09.546Z,94.53
2018-12-24T19:34:39.579Z,64.33
2018-12-24T19:37:09.551Z,56.97
2018-12-24T19:39:39.515Z,45.60
2018-12-24T19:42:09.444Z,189.33
2018-12-24T19:44:39.497Z,192.83
2018-12-24T19:47:09.475Z,192.60
2018-12-24T19:49:39.506Z,190.23
2018-12-24T19:52:09.493Z,246.63
2018-12-24T19:54:39.466Z,183.30
2018-12-24T19:57:09.440Z,126.20
2018-12-24T19:59:39.424Z,200.23
2018-12-24T20:02:09.356Z,415.03
2018-12-24T20:04:39.327Z,289.83
2018-12-24T20:07:09.306Z,217.13
2018-12-24T20:09:39.333Z,649.20
2018-12-24T20:12:09.324Z,460.67
2018-12-24T20:14:39.341Z,549.53
2018-12-24T20:17:09.290Z,365.30
2018-12-24T20:19:39.274Z,145.47
2018-12-24T20:22:09.349Z,86.50
2018-12-24T20:24:39.295Z,58.27
2018-12-24T20:27:09.231Z,47.40
2018-12-24T20:29:39.313Z,50.17
2018-12-24T20:32:09.327Z,39.63
2018-12-24T20:34:39.299Z,38.40
2018-12-24T20:37:09.581Z,33.90
2018-12-24T20:39:39.624Z,31.77
2018-12-24T20:42:09.659Z,36.10
2018-12-24T20:44:39.647Z,32.20
2018-12-24T20:47:09.603Z,44.57
2018-12-24T20:49:39.542Z,33.77
2018-12-24T20:52:09.527Z,26.13
2018-12-24T20:54:39.496Z,29.00
2018-12-24T20:57:09.429Z,36.27
2018-12-24T20:59:39.379Z,50.53
2018-12-24T21:02:09.331Z,34.77
2018-12-24T21:04:39.264Z,29.17
2018-12-24T21:07:09.231Z,26.90
2018-12-24T21:09:39.182Z,28.23
2018-12-24T21:12:09.128Z,30.83
2018-12-24T21:14:39.155Z,28.93
2018-12-24T21:17:09.122Z,23.67
2018-12-24T21:19:39.071Z,31.20
2018-12-24T21:22:09.120Z,25.30
2018-12-24T21:24:39.057Z,27.40
2018-12-24T21:27:09.006Z,25.07
2018-12-24T21:29:38.980Z,28.70
2018-12-24T21:32:08.924Z,20.93
2018-12-24T21:34:38.848Z,21.03
2018-12-24T21:37:08.813Z,24.60
2018-12-24T21:39:38.901Z,25.60
2018-12-24T21:42:08.834Z,31.77
2018-12-24T21:44:38.802Z,33.40
2018-12-24T21:47:08.758Z,34.57
2018-12-24T21:49:38.727Z,40.27
2018-12-24T21:52:08.704Z,40.33
2018-12-24T21:54:38.629Z,37.90
2018-12-24T21:57:09.702Z,29.93
2018-12-24T21:59:39.651Z,37.30
2018-12-24T22:02:09.679Z,35.50
2018-12-24T22:04:39.750Z,35.97
2018-12-24T22:07:09.744Z,32.90
2018-12-24T22:09:39.696Z,34.57
2018-12-24T22:12:09.626Z,28.23
2018-12-24T22:14:39.650Z,32.80
2018-12-24T22:17:09.620Z,29.33
2018-12-24T22:19:39.579Z,30.73
2018-12-24T22:22:09.587Z,33.00
2018-12-24T22:24:39.599Z,29.60
2018-12-24T22:27:09.546Z,29.53
2018-12-24T22:29:39.523Z,35.50
2018-12-24T22:32:09.475Z,29.70
2018-12-24T22:34:39.402Z,27.80
2018-12-24T22:37:09.366Z,27.93
2018-12-24T22:39:39.303Z,22.50
2018-12-24T22:42:09.387Z,29.10
2018-12-24T22:44:39.400Z,18.60
2018-12-24T22:47:09.339Z,21.97
2018-12-24T22:49:39.274Z,24.73
2018-12-24T22:52:09.251Z,18.53
2018-12-24T22:54:39.218Z,21.90
2018-12-24T22:57:09.159Z,94.03
2018-12-24T22:59:39.153Z,227.97
2018-12-24T23:02:09.206Z,490.23
2018-12-24T23:04:39.184Z,217.50
2018-12-24T23:07:09.147Z,38.43
2018-12-24T23:09:39.113Z,55.57
2018-12-24T23:12:09.093Z,23.47
2018-12-24T23:14:39.043Z,51.20
2018-12-24T23:17:09.025Z,44.83
2018-12-24T23:19:38.955Z,155.40
2018-12-24T23:22:10.994Z,48.13
2018-12-24T23:24:40.589Z,29.10
2018-12-24T23:27:10.531Z,63.40
2018-12-24T23:29:40.805Z,55.20
2018-12-24T23:32:10.757Z,23.70
2018-12-24T23:34:40.748Z,14.27
2018-12-24T23:37:10.772Z,6.90
2018-12-24T23:39:40.736Z,33.70
2018-12-24T23:42:10.923Z,86.80
2018-12-24T23:44:40.984Z,322.33
2018-12-24T23:47:10.953Z,383.20
2018-12-24T23:49:40.907Z,138.97
2018-12-24T23:52:10.898Z,27.43
2018-12-24T23:54:40.842Z,25.70
2018-12-24T23:57:10.807Z,32.40
2018-12-24T23:59:40.777Z,29.87
